sensor_id;sensor_type;location;lat;lon;timestamp;temperature;humidity
32895;DHT22;19251;49.484;8.260;2023-12-20T00:02:21;9.80;26.10
32895;DHT22;19251;49.484;8.260;2023-12-20T00:07:23;9.80;26.10
32895;DHT22;19251;49.484;8.260;2023-12-20T00:12:26;9.70;26.00
32895;DHT22;19251;49.484;8.260;2023-12-20T00:17:28;9.70;26.00
32895;DHT22;19251;49.484;8.260;2023-12-20T00:22:30;9.60;25.90
32895;DHT22;19251;49.484;8.260;2023-12-20T00:27:32;9.60;25.90
32895;DHT22;19251;49.484;8.260;2023-12-20T00:32:34;9.50;25.90
32895;DHT22;19251;49.484;8.260;2023-12-20T00:37:37;9.50;25.90
32895;DHT22;19251;49.484;8.260;2023-12-20T00:42:39;9.40;25.80
32895;DHT22;19251;49.484;8.260;2023-12-20T00:47:41;9.40;25.80
32895;DHT22;19251;49.484;8.260;2023-12-20T00:52:44;9.20;26.00
32895;DHT22;19251;49.484;8.260;2023-12-20T00:57:46;9.20;26.30
32895;DHT22;19251;49.484;8.260;2023-12-20T01:02:49;9.10;26.30
32895;DHT22;19251;49.484;8.260;2023-12-20T01:12:55;9.10;26.40
32895;DHT22;19251;49.484;8.260;2023-12-20T01:17:57;9.10;26.40
32895;DHT22;19251;49.484;8.260;2023-12-20T01:23:01;9.10;26.40
32895;DHT22;19251;49.484;8.260;2023-12-20T01:28:03;9.10;26.30
32895;DHT22;19251;49.484;8.260;2023-12-20T01:33:05;9.10;26.30
32895;DHT22;19251;49.484;8.260;2023-12-20T01:38:08;9.10;26.40
32895;DHT22;19251;49.484;8.260;2023-12-20T01:43:10;9.10;26.30
32895;DHT22;19251;49.484;8.260;2023-12-20T01:48:14;9.10;26.30
32895;DHT22;19251;49.484;8.260;2023-12-20T01:53:18;9.10;26.30
32895;DHT22;19251;49.484;8.260;2023-12-20T01:58:21;9.10;26.30
32895;DHT22;19251;49.484;8.260;2023-12-20T02:03:24;9.20;26.40
32895;DHT22;19251;49.484;8.260;2023-12-20T02:08:26;9.20;26.30
32895;DHT22;19251;49.484;8.260;2023-12-20T02:13:28;9.20;26.40
32895;DHT22;19251;49.484;8.260;2023-12-20T02:18:30;9.20;26.30
32895;DHT22;19251;49.484;8.260;2023-12-20T02:23:32;9.20;26.30
32895;DHT22;19251;49.484;8.260;2023-12-20T02:28:34;9.20;26.40
32895;DHT22;19251;49.484;8.260;2023-12-20T02:33:37;9.20;26.40
32895;DHT22;19251;49.484;8.260;2023-12-20T02:38:41;9.30;26.40
32895;DHT22;19251;49.484;8.260;2023-12-20T02:43:43;9.30;26.40
32895;DHT22;19251;49.484;8.260;2023-12-20T02:48:46;9.30;26.50
32895;DHT22;19251;49.484;8.260;2023-12-20T02:53:49;9.20;26.50
32895;DHT22;19251;49.484;8.260;2023-12-20T02:58:51;9.20;26.50
32895;DHT22;19251;49.484;8.260;2023-12-20T03:03:53;9.20;26.60
32895;DHT22;19251;49.484;8.260;2023-12-20T03:08:55;9.20;26.60
32895;DHT22;19251;49.484;8.260;2023-12-20T03:13:57;9.20;26.60
32895;DHT22;19251;49.484;8.260;2023-12-20T03:18:59;9.30;26.70
32895;DHT22;19251;49.484;8.260;2023-12-20T03:24:01;9.30;26.80
32895;DHT22;19251;49.484;8.260;2023-12-20T03:29:03;9.20;26.60
32895;DHT22;19251;49.484;8.260;2023-12-20T03:34:06;9.20;26.70
32895;DHT22;19251;49.484;8.260;2023-12-20T03:39:08;9.30;26.80
32895;DHT22;19251;49.484;8.260;2023-12-20T03:44:13;9.30;26.80
32895;DHT22;19251;49.484;8.260;2023-12-20T03:49:15;11.20;27.40
32895;DHT22;19251;49.484;8.260;2023-12-20T03:54:17;9.30;26.90
32895;DHT22;19251;49.484;8.260;2023-12-20T03:59:19;9.30;26.90
32895;DHT22;19251;49.484;8.260;2023-12-20T04:04:21;9.30;27.10
32895;DHT22;19251;49.484;8.260;2023-12-20T04:09:24;9.30;27.30
32895;DHT22;19251;49.484;8.260;2023-12-20T04:14:26;9.30;27.30
32895;DHT22;19251;49.484;8.260;2023-12-20T04:19:28;9.30;27.40
32895;DHT22;19251;49.484;8.260;2023-12-20T04:24:30;9.30;27.40
32895;DHT22;19251;49.484;8.260;2023-12-20T04:29:32;9.20;27.30
32895;DHT22;19251;49.484;8.260;2023-12-20T04:34:35;9.30;27.50
32895;DHT22;19251;49.484;8.260;2023-12-20T04:39:37;9.30;27.50
32895;DHT22;19251;49.484;8.260;2023-12-20T04:44:39;9.40;27.60
32895;DHT22;19251;49.484;8.260;2023-12-20T04:49:41;9.40;27.50
32895;DHT22;19251;49.484;8.260;2023-12-20T04:54:43;9.40;27.50
32895;DHT22;19251;49.484;8.260;2023-12-20T04:59:46;9.40;27.50
32895;DHT22;19251;49.484;8.260;2023-12-20T05:04:48;9.40;27.50
32895;DHT22;19251;49.484;8.260;2023-12-20T05:09:50;9.40;27.50
32895;DHT22;19251;49.484;8.260;2023-12-20T05:14:52;9.40;27.50
32895;DHT22;19251;49.484;8.260;2023-12-20T05:19:54;9.50;27.60
32895;DHT22;19251;49.484;8.260;2023-12-20T05:24:56;9.50;27.50
32895;DHT22;19251;49.484;8.260;2023-12-20T05:29:58;9.50;27.30
32895;DHT22;19251;49.484;8.260;2023-12-20T05:35:00;9.50;27.20
32895;DHT22;19251;49.484;8.260;2023-12-20T05:40:03;9.40;27.10
32895;DHT22;19251;49.484;8.260;2023-12-20T05:45:06;9.30;27.10
32895;DHT22;19251;49.484;8.260;2023-12-20T05:50:08;9.30;27.20
32895;DHT22;19251;49.484;8.260;2023-12-20T05:55:10;9.20;27.10
32895;DHT22;19251;49.484;8.260;2023-12-20T06:00:13;9.20;27.20
32895;DHT22;19251;49.484;8.260;2023-12-20T06:05:42;9.20;27.30
32895;DHT22;19251;49.484;8.260;2023-12-20T06:10:44;9.30;27.30
32895;DHT22;19251;49.484;8.260;2023-12-20T06:15:46;9.20;26.90
32895;DHT22;19251;49.484;8.260;2023-12-20T06:20:48;9.20;26.70
32895;DHT22;19251;49.484;8.260;2023-12-20T06:25:51;9.20;26.60
32895;DHT22;19251;49.484;8.260;2023-12-20T06:30:53;9.10;26.20
32895;DHT22;19251;49.484;8.260;2023-12-20T06:35:57;9.10;25.70
32895;DHT22;19251;49.484;8.260;2023-12-20T06:40:59;9.00;25.50
32895;DHT22;19251;49.484;8.260;2023-12-20T06:46:01;8.90;25.40
32895;DHT22;19251;49.484;8.260;2023-12-20T06:51:03;8.90;25.40
32895;DHT22;19251;49.484;8.260;2023-12-20T06:56:05;8.80;25.40
32895;DHT22;19251;49.484;8.260;2023-12-20T07:01:11;8.80;25.40
32895;DHT22;19251;49.484;8.260;2023-12-20T07:06:13;8.80;25.40
32895;DHT22;19251;49.484;8.260;2023-12-20T07:11:19;8.70;24.90
32895;DHT22;19251;49.484;8.260;2023-12-20T07:16:21;8.70;24.80
32895;DHT22;19251;49.484;8.260;2023-12-20T07:21:24;8.70;24.80
32895;DHT22;19251;49.484;8.260;2023-12-20T07:26:27;8.70;24.80
32895;DHT22;19251;49.484;8.260;2023-12-20T07:31:29;8.70;24.80
32895;DHT22;19251;49.484;8.260;2023-12-20T07:36:31;8.70;24.70
32895;DHT22;19251;49.484;8.260;2023-12-20T07:41:33;8.60;24.60
32895;DHT22;19251;49.484;8.260;2023-12-20T07:46:38;8.60;24.70
32895;DHT22;19251;49.484;8.260;2023-12-20T07:51:40;8.60;24.70
32895;DHT22;19251;49.484;8.260;2023-12-20T07:56:42;8.60;24.70
32895;DHT22;19251;49.484;8.260;2023-12-20T08:01:44;8.60;24.70
32895;DHT22;19251;49.484;8.260;2023-12-20T08:11:49;8.80;24.60
32895;DHT22;19251;49.484;8.260;2023-12-20T08:16:51;8.70;24.50
32895;DHT22;19251;49.484;8.260;2023-12-20T08:21:53;8.80;24.50
32895;DHT22;19251;49.484;8.260;2023-12-20T08:26:55;8.80;24.40
32895;DHT22;19251;49.484;8.260;2023-12-20T08:31:57;8.80;24.40
32895;DHT22;19251;49.484;8.260;2023-12-20T08:36:59;8.80;24.30
32895;DHT22;19251;49.484;8.260;2023-12-20T08:42:01;8.90;24.30
32895;DHT22;19251;49.484;8.260;2023-12-20T08:52:06;8.90;24.20
32895;DHT22;19251;49.484;8.260;2023-12-20T08:57:08;9.10;24.20
32895;DHT22;19251;49.484;8.260;2023-12-20T09:02:10;9.10;24.10
32895;DHT22;19251;49.484;8.260;2023-12-20T09:07:22;9.10;24.00
32895;DHT22;19251;49.484;8.260;2023-12-20T09:12:25;9.30;23.90
32895;DHT22;19251;49.484;8.260;2023-12-20T09:17:27;9.20;23.90
32895;DHT22;19251;49.484;8.260;2023-12-20T09:22:29;9.20;23.80
32895;DHT22;19251;49.484;8.260;2023-12-20T09:27:31;9.40;23.70
32895;DHT22;19251;49.484;8.260;2023-12-20T09:32:34;9.50;23.70
32895;DHT22;19251;49.484;8.260;2023-12-20T09:37:36;9.60;23.50
32895;DHT22;19251;49.484;8.260;2023-12-20T09:42:48;9.70;23.20
32895;DHT22;19251;49.484;8.260;2023-12-20T09:47:53;9.60;22.90
32895;DHT22;19251;49.484;8.260;2023-12-20T09:52:56;9.70;22.90
32895;DHT22;19251;49.484;8.260;2023-12-20T09:58:01;9.60;22.60
32895;DHT22;19251;49.484;8.260;2023-12-20T10:03:03;9.60;22.40
32895;DHT22;19251;49.484;8.260;2023-12-20T10:08:06;9.70;22.60
32895;DHT22;19251;49.484;8.260;2023-12-20T10:13:12;9.80;22.60
32895;DHT22;19251;49.484;8.260;2023-12-20T10:18:15;9.80;22.50
32895;DHT22;19251;49.484;8.260;2023-12-20T10:23:17;9.70;22.00
32895;DHT22;19251;49.484;8.260;2023-12-20T10:28:20;9.80;22.10
32895;DHT22;19251;49.484;8.260;2023-12-20T10:33:26;9.80;22.10
32895;DHT22;19251;49.484;8.260;2023-12-20T10:38:29;9.80;22.00
32895;DHT22;19251;49.484;8.260;2023-12-20T10:43:32;9.90;22.00
32895;DHT22;19251;49.484;8.260;2023-12-20T10:48:35;10.00;21.20
32895;DHT22;19251;49.484;8.260;2023-12-20T10:53:38;10.10;20.80
32895;DHT22;19251;49.484;8.260;2023-12-20T10:58:42;10.20;20.90
32895;DHT22;19251;49.484;8.260;2023-12-20T11:03:51;10.20;20.70
32895;DHT22;19251;49.484;8.260;2023-12-20T11:13:58;10.40;20.70
32895;DHT22;19251;49.484;8.260;2023-12-20T11:19:04;10.40;20.30
32895;DHT22;19251;49.484;8.260;2023-12-20T11:24:07;10.40;20.30
32895;DHT22;19251;49.484;8.260;2023-12-20T11:29:29;10.50;20.20
32895;DHT22;19251;49.484;8.260;2023-12-20T11:34:31;10.60;20.20
32895;DHT22;19251;49.484;8.260;2023-12-20T11:39:34;10.60;19.90
32895;DHT22;19251;49.484;8.260;2023-12-20T11:44:36;10.60;19.60
32895;DHT22;19251;49.484;8.260;2023-12-20T11:49:38;10.70;19.70
32895;DHT22;19251;49.484;8.260;2023-12-20T11:54:40;10.80;19.60
32895;DHT22;19251;49.484;8.260;2023-12-20T11:59:42;10.60;19.30
32895;DHT22;19251;49.484;8.260;2023-12-20T12:09:47;10.70;19.20
32895;DHT22;19251;49.484;8.260;2023-12-20T12:14:50;10.60;19.10
32895;DHT22;19251;49.484;8.260;2023-12-20T12:20:01;10.60;18.20
32895;DHT22;19251;49.484;8.260;2023-12-20T12:25:10;10.60;18.80
32895;DHT22;19251;49.484;8.260;2023-12-20T12:30:16;10.60;18.70
32895;DHT22;19251;49.484;8.260;2023-12-20T12:35:20;10.70;18.60
32895;DHT22;19251;49.484;8.260;2023-12-20T12:40:23;10.80;18.50
32895;DHT22;19251;49.484;8.260;2023-12-20T12:45:25;10.70;18.10
32895;DHT22;19251;49.484;8.260;2023-12-20T12:50:28;10.70;18.10
32895;DHT22;19251;49.484;8.260;2023-12-20T12:55:31;10.70;18.00
32895;DHT22;19251;49.484;8.260;2023-12-20T13:00:34;10.70;18.00
32895;DHT22;19251;49.484;8.260;2023-12-20T13:05:36;10.70;18.10
32895;DHT22;19251;49.484;8.260;2023-12-20T13:10:44;10.70;18.10
32895;DHT22;19251;49.484;8.260;2023-12-20T13:15:46;10.70;18.00
32895;DHT22;19251;49.484;8.260;2023-12-20T13:20:53;10.70;18.00
32895;DHT22;19251;49.484;8.260;2023-12-20T13:25:55;10.80;18.00
32895;DHT22;19251;49.484;8.260;2023-12-20T13:30:57;11.00;18.20
32895;DHT22;19251;49.484;8.260;2023-12-20T13:35:59;11.20;18.20
32895;DHT22;19251;49.484;8.260;2023-12-20T13:41:03;11.40;17.90
32895;DHT22;19251;49.484;8.260;2023-12-20T13:51:09;11.70;16.90
32895;DHT22;19251;49.484;8.260;2023-12-20T13:56:11;11.60;16.60
32895;DHT22;19251;49.484;8.260;2023-12-20T14:01:13;11.60;16.30
32895;DHT22;19251;49.484;8.260;2023-12-20T14:06:15;11.50;16.30
32895;DHT22;19251;49.484;8.260;2023-12-20T14:11:18;11.50;16.30
32895;DHT22;19251;49.484;8.260;2023-12-20T14:21:23;11.40;16.00
32895;DHT22;19251;49.484;8.260;2023-12-20T14:26:25;11.40;16.30
32895;DHT22;19251;49.484;8.260;2023-12-20T14:31:29;11.40;16.20
32895;DHT22;19251;49.484;8.260;2023-12-20T14:36:31;11.30;16.10
32895;DHT22;19251;49.484;8.260;2023-12-20T14:41:33;11.20;16.00
32895;DHT22;19251;49.484;8.260;2023-12-20T14:46:35;11.20;16.10
32895;DHT22;19251;49.484;8.260;2023-12-20T14:51:43;11.00;16.00
32895;DHT22;19251;49.484;8.260;2023-12-20T14:56:45;10.90;16.10
32895;DHT22;19251;49.484;8.260;2023-12-20T15:06:50;10.70;16.40
32895;DHT22;19251;49.484;8.260;2023-12-20T15:11:52;10.60;16.70
32895;DHT22;19251;49.484;8.260;2023-12-20T15:16:54;10.50;16.80
32895;DHT22;19251;49.484;8.260;2023-12-20T15:21:57;10.50;17.00
32895;DHT22;19251;49.484;8.260;2023-12-20T15:27:01;10.40;17.20
32895;DHT22;19251;49.484;8.260;2023-12-20T15:37:07;10.30;17.40
32895;DHT22;19251;49.484;8.260;2023-12-20T15:42:10;10.20;17.50
32895;DHT22;19251;49.484;8.260;2023-12-20T15:47:12;10.20;17.60
32895;DHT22;19251;49.484;8.260;2023-12-20T15:52:14;10.20;17.80
32895;DHT22;19251;49.484;8.260;2023-12-20T15:57:17;10.30;17.90
32895;DHT22;19251;49.484;8.260;2023-12-20T16:02:19;10.30;17.90
32895;DHT22;19251;49.484;8.260;2023-12-20T16:07:24;10.40;18.00
32895;DHT22;19251;49.484;8.260;2023-12-20T16:12:26;10.40;18.10
32895;DHT22;19251;49.484;8.260;2023-12-20T16:17:28;10.40;18.10
32895;DHT22;19251;49.484;8.260;2023-12-20T16:22:30;10.40;18.10
32895;DHT22;19251;49.484;8.260;2023-12-20T16:27:33;10.50;18.20
32895;DHT22;19251;49.484;8.260;2023-12-20T16:32:35;10.50;18.20
32895;DHT22;19251;49.484;8.260;2023-12-20T16:37:37;10.50;18.20
32895;DHT22;19251;49.484;8.260;2023-12-20T16:42:40;10.60;18.40
32895;DHT22;19251;49.484;8.260;2023-12-20T16:47:42;10.60;18.50
32895;DHT22;19251;49.484;8.260;2023-12-20T16:52:44;10.60;18.60
32895;DHT22;19251;49.484;8.260;2023-12-20T16:57:52;10.60;18.60
32895;DHT22;19251;49.484;8.260;2023-12-20T17:02:54;10.60;18.70
32895;DHT22;19251;49.484;8.260;2023-12-20T17:07:56;10.60;18.70
32895;DHT22;19251;49.484;8.260;2023-12-20T17:12:58;10.70;18.80
32895;DHT22;19251;49.484;8.260;2023-12-20T17:18:00;10.70;18.80
32895;DHT22;19251;49.484;8.260;2023-12-20T17:23:04;10.70;18.90
32895;DHT22;19251;49.484;8.260;2023-12-20T17:28:06;10.70;18.90
32895;DHT22;19251;49.484;8.260;2023-12-20T17:33:08;10.70;19.00
32895;DHT22;19251;49.484;8.260;2023-12-20T17:38:10;10.80;19.10
32895;DHT22;19251;49.484;8.260;2023-12-20T17:43:13;10.80;19.20
32895;DHT22;19251;49.484;8.260;2023-12-20T17:48:15;10.80;19.20
32895;DHT22;19251;49.484;8.260;2023-12-20T17:53:18;10.80;19.30
32895;DHT22;19251;49.484;8.260;2023-12-20T17:58:20;10.80;19.30
32895;DHT22;19251;49.484;8.260;2023-12-20T18:03:23;10.90;19.30
32895;DHT22;19251;49.484;8.260;2023-12-20T18:08:26;10.80;19.40
32895;DHT22;19251;49.484;8.260;2023-12-20T18:13:28;10.80;19.40
32895;DHT22;19251;49.484;8.260;2023-12-20T18:18:30;10.80;19.50
32895;DHT22;19251;49.484;8.260;2023-12-20T18:23:33;10.80;19.50
32895;DHT22;19251;49.484;8.260;2023-12-20T18:28:35;10.80;19.60
32895;DHT22;19251;49.484;8.260;2023-12-20T18:33:37;10.80;19.70
32895;DHT22;19251;49.484;8.260;2023-12-20T18:38:39;10.90;19.80
32895;DHT22;19251;49.484;8.260;2023-12-20T18:43:41;10.90;19.90
32895;DHT22;19251;49.484;8.260;2023-12-20T18:48:43;10.90;20.00
32895;DHT22;19251;49.484;8.260;2023-12-20T18:53:46;10.80;20.00
32895;DHT22;19251;49.484;8.260;2023-12-20T18:58:48;10.80;20.00
32895;DHT22;19251;49.484;8.260;2023-12-20T19:03:51;10.80;20.00
32895;DHT22;19251;49.484;8.260;2023-12-20T19:08:53;10.80;20.00
32895;DHT22;19251;49.484;8.260;2023-12-20T19:13:56;10.80;20.00
32895;DHT22;19251;49.484;8.260;2023-12-20T19:18:58;10.80;20.00
32895;DHT22;19251;49.484;8.260;2023-12-20T19:24:00;10.80;20.10
32895;DHT22;19251;49.484;8.260;2023-12-20T19:29:02;10.80;20.20
32895;DHT22;19251;49.484;8.260;2023-12-20T19:34:04;10.80;20.20
32895;DHT22;19251;49.484;8.260;2023-12-20T19:39:07;10.80;20.30
32895;DHT22;19251;49.484;8.260;2023-12-20T19:44:09;10.80;20.30
32895;DHT22;19251;49.484;8.260;2023-12-20T19:49:13;10.80;20.30
32895;DHT22;19251;49.484;8.260;2023-12-20T19:54:16;10.80;20.30
32895;DHT22;19251;49.484;8.260;2023-12-20T19:59:18;10.80;20.40
32895;DHT22;19251;49.484;8.260;2023-12-20T20:04:21;10.80;20.50
32895;DHT22;19251;49.484;8.260;2023-12-20T20:09:25;10.90;20.50
32895;DHT22;19251;49.484;8.260;2023-12-20T20:14:27;10.80;20.50
32895;DHT22;19251;49.484;8.260;2023-12-20T20:24:35;10.90;20.60
32895;DHT22;19251;49.484;8.260;2023-12-20T20:29:37;10.90;20.60
32895;DHT22;19251;49.484;8.260;2023-12-20T20:34:39;11.00;20.70
32895;DHT22;19251;49.484;8.260;2023-12-20T20:39:42;10.90;20.60
32895;DHT22;19251;49.484;8.260;2023-12-20T20:44:44;10.90;20.70
32895;DHT22;19251;49.484;8.260;2023-12-20T20:49:46;11.00;20.90
32895;DHT22;19251;49.484;8.260;2023-12-20T20:54:48;11.00;20.80
32895;DHT22;19251;49.484;8.260;2023-12-20T20:59:50;11.00;20.90
32895;DHT22;19251;49.484;8.260;2023-12-20T21:09:55;11.00;21.10
32895;DHT22;19251;49.484;8.260;2023-12-20T21:14:57;11.00;21.20
32895;DHT22;19251;49.484;8.260;2023-12-20T21:19:59;10.90;21.30
32895;DHT22;19251;49.484;8.260;2023-12-20T21:25:01;11.00;21.50
32895;DHT22;19251;49.484;8.260;2023-12-20T21:30:03;10.90;21.60
32895;DHT22;19251;49.484;8.260;2023-12-20T21:35:06;10.80;21.60
32895;DHT22;19251;49.484;8.260;2023-12-20T21:40:08;10.80;21.80
32895;DHT22;19251;49.484;8.260;2023-12-20T21:45:11;10.80;22.00
32895;DHT22;19251;49.484;8.260;2023-12-20T21:50:13;10.70;22.00
32895;DHT22;19251;49.484;8.260;2023-12-20T21:55:15;10.70;22.20
32895;DHT22;19251;49.484;8.260;2023-12-20T22:00:18;10.70;22.20
32895;DHT22;19251;49.484;8.260;2023-12-20T22:05:20;10.70;22.40
32895;DHT22;19251;49.484;8.260;2023-12-20T22:10:22;10.70;22.50
32895;DHT22;19251;49.484;8.260;2023-12-20T22:15:25;10.70;22.50
32895;DHT22;19251;49.484;8.260;2023-12-20T22:20:27;10.80;22.70
32895;DHT22;19251;49.484;8.260;2023-12-20T22:25:31;10.80;22.80
32895;DHT22;19251;49.484;8.260;2023-12-20T22:30:33;10.80;22.90
32895;DHT22;19251;49.484;8.260;2023-12-20T22:35:35;10.70;22.90
32895;DHT22;19251;49.484;8.260;2023-12-20T22:40:37;10.80;22.90
32895;DHT22;19251;49.484;8.260;2023-12-20T22:45:40;10.80;22.90
32895;DHT22;19251;49.484;8.260;2023-12-20T22:50:45;10.80;22.90
32895;DHT22;19251;49.484;8.260;2023-12-20T23:00:49;10.90;22.90
32895;DHT22;19251;49.484;8.260;2023-12-20T23:05:52;10.90;22.90
32895;DHT22;19251;49.484;8.260;2023-12-20T23:10:54;10.90;22.90
32895;DHT22;19251;49.484;8.260;2023-12-20T23:15:56;10.90;22.90
32895;DHT22;19251;49.484;8.260;2023-12-20T23:26:01;11.00;22.80
32895;DHT22;19251;49.484;8.260;2023-12-20T23:31:03;11.10;22.90
32895;DHT22;19251;49.484;8.260;2023-12-20T23:36:06;11.00;22.80
32895;DHT22;19251;49.484;8.260;2023-12-20T23:41:08;11.00;22.90
32895;DHT22;19251;49.484;8.260;2023-12-20T23:46:10;10.90;22.90
32895;DHT22;19251;49.484;8.260;2023-12-20T23:51:12;10.90;23.00
32895;DHT22;19251;49.484;8.260;2023-12-20T23:56:15;10.90;23.10
